sensor_id;sensor_type;location;lat;lon;timestamp;P1;durP1;ratioP1;P2;durP2;ratioP2
2416;SDS011;1219;48.736;9.330;2023-06-14T00:01:40;6.20;;;5.60;;
2416;SDS011;1219;48.736;9.330;2023-06-14T00:04:05;7.40;;;6.17;;
2416;SDS011;1219;48.736;9.330;2023-06-14T00:06:33;7.17;;;6.23;;
2416;SDS011;1219;48.736;9.330;2023-06-14T00:08:59;6.43;;;5.90;;
2416;SDS011;1219;48.736;9.330;2023-06-14T00:11:26;6.20;;;5.67;;
2416;SDS011;1219;48.736;9.330;2023-06-14T00:13:52;7.10;;;6.50;;
2416;SDS011;1219;48.736;9.330;2023-06-14T00:16:18;5.33;;;4.93;;
2416;SDS011;1219;48.736;9.330;2023-06-14T00:18:44;6.60;;;6.10;;
2416;SDS011;1219;48.736;9.330;2023-06-14T00:21:10;6.23;;;5.73;;
2416;SDS011;1219;48.736;9.330;2023-06-14T00:23:37;6.27;;;5.77;;
2416;SDS011;1219;48.736;9.330;2023-06-14T00:26:03;6.27;;;5.67;;
2416;SDS011;1219;48.736;9.330;2023-06-14T00:28:29;8.17;;;6.40;;
2416;SDS011;1219;48.736;9.330;2023-06-14T00:30:55;5.60;;;5.17;;
2416;SDS011;1219;48.736;9.330;2023-06-14T00:33:21;6.60;;;6.20;;
2416;SDS011;1219;48.736;9.330;2023-06-14T00:35:46;6.77;;;6.17;;
2416;SDS011;1219;48.736;9.330;2023-06-14T00:38:13;6.23;;;5.40;;
2416;SDS011;1219;48.736;9.330;2023-06-14T00:40:39;14.30;;;11.43;;
2416;SDS011;1219;48.736;9.330;2023-06-14T00:43:05;23.27;;;19.17;;
2416;SDS011;1219;48.736;9.330;2023-06-14T00:45:31;21.63;;;19.40;;
2416;SDS011;1219;48.736;9.330;2023-06-14T00:48:01;18.93;;;16.70;;
2416;SDS011;1219;48.736;9.330;2023-06-14T00:50:27;18.70;;;15.17;;
2416;SDS011;1219;48.736;9.330;2023-06-14T00:52:54;18.17;;;15.60;;
2416;SDS011;1219;48.736;9.330;2023-06-14T00:55:20;18.17;;;15.00;;
2416;SDS011;1219;48.736;9.330;2023-06-14T00:57:46;16.07;;;13.17;;
2416;SDS011;1219;48.736;9.330;2023-06-14T01:00:13;12.63;;;11.13;;
2416;SDS011;1219;48.736;9.330;2023-06-14T01:02:39;10.20;;;9.17;;
2416;SDS011;1219;48.736;9.330;2023-06-14T01:05:05;8.37;;;7.57;;
2416;SDS011;1219;48.736;9.330;2023-06-14T01:14:59;8.10;;;6.63;;
2416;SDS011;1219;48.736;9.330;2023-06-14T01:17:25;6.73;;;6.13;;
2416;SDS011;1219;48.736;9.330;2023-06-14T01:19:52;5.43;;;5.07;;
2416;SDS011;1219;48.736;9.330;2023-06-14T01:22:23;6.90;;;6.30;;
2416;SDS011;1219;48.736;9.330;2023-06-14T01:24:49;5.87;;;5.37;;
2416;SDS011;1219;48.736;9.330;2023-06-14T01:27:15;6.20;;;5.70;;
2416;SDS011;1219;48.736;9.330;2023-06-14T01:29:41;6.43;;;5.93;;
2416;SDS011;1219;48.736;9.330;2023-06-14T01:32:10;6.50;;;5.90;;
2416;SDS011;1219;48.736;9.330;2023-06-14T01:34:36;5.97;;;5.37;;
2416;SDS011;1219;48.736;9.330;2023-06-14T01:37:02;5.23;;;4.83;;
2416;SDS011;1219;48.736;9.330;2023-06-14T01:39:28;6.40;;;5.80;;
2416;SDS011;1219;48.736;9.330;2023-06-14T01:41:55;5.80;;;5.30;;
2416;SDS011;1219;48.736;9.330;2023-06-14T01:44:23;6.13;;;5.63;;
2416;SDS011;1219;48.736;9.330;2023-06-14T01:46:49;6.20;;;5.63;;
2416;SDS011;1219;48.736;9.330;2023-06-14T01:49:16;6.27;;;5.70;;
2416;SDS011;1219;48.736;9.330;2023-06-14T01:51:42;7.10;;;6.60;;
2416;SDS011;1219;48.736;9.330;2023-06-14T01:54:08;6.83;;;6.23;;
2416;SDS011;1219;48.736;9.330;2023-06-14T01:56:34;6.00;;;5.50;;
2416;SDS011;1219;48.736;9.330;2023-06-14T01:59:00;6.33;;;5.83;;
2416;SDS011;1219;48.736;9.330;2023-06-14T02:01:26;6.27;;;5.67;;
2416;SDS011;1219;48.736;9.330;2023-06-14T02:03:51;6.57;;;5.90;;
2416;SDS011;1219;48.736;9.330;2023-06-14T02:06:18;6.67;;;6.17;;
2416;SDS011;1219;48.736;9.330;2023-06-14T02:08:44;7.57;;;5.43;;
2416;SDS011;1219;48.736;9.330;2023-06-14T02:11:10;5.70;;;5.30;;
2416;SDS011;1219;48.736;9.330;2023-06-14T02:13:36;5.73;;;5.33;;
2416;SDS011;1219;48.736;9.330;2023-06-14T02:16:02;6.17;;;5.77;;
2416;SDS011;1219;48.736;9.330;2023-06-14T02:18:29;6.30;;;5.90;;
2416;SDS011;1219;48.736;9.330;2023-06-14T02:20:55;6.80;;;6.20;;
2416;SDS011;1219;48.736;9.330;2023-06-14T02:23:21;7.10;;;6.47;;
2416;SDS011;1219;48.736;9.330;2023-06-14T02:25:47;6.17;;;5.67;;
2416;SDS011;1219;48.736;9.330;2023-06-14T02:28:13;6.20;;;5.77;;
2416;SDS011;1219;48.736;9.330;2023-06-14T02:30:39;5.90;;;5.50;;
2416;SDS011;1219;48.736;9.330;2023-06-14T02:33:05;6.33;;;5.93;;
2416;SDS011;1219;48.736;9.330;2023-06-14T02:35:31;6.03;;;5.43;;
2416;SDS011;1219;48.736;9.330;2023-06-14T02:37:57;5.50;;;5.10;;
2416;SDS011;1219;48.736;9.330;2023-06-14T02:40:23;5.73;;;5.27;;
2416;SDS011;1219;48.736;9.330;2023-06-14T02:42:50;5.90;;;5.13;;
2416;SDS011;1219;48.736;9.330;2023-06-14T02:45:16;5.80;;;5.30;;
2416;SDS011;1219;48.736;9.330;2023-06-14T02:47:42;7.17;;;6.47;;
2416;SDS011;1219;48.736;9.330;2023-06-14T02:50:08;6.90;;;6.40;;
2416;SDS011;1219;48.736;9.330;2023-06-14T02:52:34;9.40;;;5.73;;
2416;SDS011;1219;48.736;9.330;2023-06-14T02:55:00;7.17;;;5.90;;
2416;SDS011;1219;48.736;9.330;2023-06-14T02:57:26;6.20;;;5.60;;
2416;SDS011;1219;48.736;9.330;2023-06-14T02:59:52;5.90;;;5.43;;
2416;SDS011;1219;48.736;9.330;2023-06-14T03:02:18;6.60;;;6.10;;
2416;SDS011;1219;48.736;9.330;2023-06-14T03:04:44;7.57;;;6.80;;
2416;SDS011;1219;48.736;9.330;2023-06-14T03:07:11;6.33;;;5.93;;
2416;SDS011;1219;48.736;9.330;2023-06-14T03:09:38;6.43;;;5.83;;
2416;SDS011;1219;48.736;9.330;2023-06-14T03:12:04;5.73;;;5.33;;
2416;SDS011;1219;48.736;9.330;2023-06-14T03:14:35;7.63;;;6.00;;
2416;SDS011;1219;48.736;9.330;2023-06-14T03:17:01;6.17;;;5.77;;
2416;SDS011;1219;48.736;9.330;2023-06-14T03:19:27;6.07;;;5.67;;
2416;SDS011;1219;48.736;9.330;2023-06-14T03:21:53;6.50;;;5.80;;
2416;SDS011;1219;48.736;9.330;2023-06-14T03:24:22;6.40;;;5.90;;
2416;SDS011;1219;48.736;9.330;2023-06-14T03:26:47;6.47;;;6.07;;
2416;SDS011;1219;48.736;9.330;2023-06-14T03:29:13;6.13;;;5.60;;
2416;SDS011;1219;48.736;9.330;2023-06-14T03:31:56;6.70;;;6.10;;
2416;SDS011;1219;48.736;9.330;2023-06-14T03:34:22;7.00;;;6.30;;
2416;SDS011;1219;48.736;9.330;2023-06-14T03:36:48;6.03;;;5.53;;
2416;SDS011;1219;48.736;9.330;2023-06-14T03:39:14;7.00;;;6.30;;
2416;SDS011;1219;48.736;9.330;2023-06-14T03:41:40;6.87;;;6.33;;
2416;SDS011;1219;48.736;9.330;2023-06-14T03:44:06;5.90;;;5.40;;
2416;SDS011;1219;48.736;9.330;2023-06-14T03:46:32;5.57;;;5.17;;
2416;SDS011;1219;48.736;9.330;2023-06-14T03:48:58;5.70;;;5.30;;
2416;SDS011;1219;48.736;9.330;2023-06-14T03:51:25;7.10;;;6.60;;
2416;SDS011;1219;48.736;9.330;2023-06-14T03:53:51;7.77;;;6.33;;
2416;SDS011;1219;48.736;9.330;2023-06-14T03:56:17;6.07;;;5.67;;
2416;SDS011;1219;48.736;9.330;2023-06-14T03:58:43;6.80;;;6.20;;
2416;SDS011;1219;48.736;9.330;2023-06-14T04:01:09;6.20;;;5.60;;
2416;SDS011;1219;48.736;9.330;2023-06-14T04:03:37;6.47;;;5.87;;
2416;SDS011;1219;48.736;9.330;2023-06-14T04:06:03;6.73;;;6.20;;
2416;SDS011;1219;48.736;9.330;2023-06-14T04:08:30;6.67;;;6.17;;
2416;SDS011;1219;48.736;9.330;2023-06-14T04:10:56;6.33;;;5.83;;
2416;SDS011;1219;48.736;9.330;2023-06-14T04:13:22;6.67;;;6.20;;
2416;SDS011;1219;48.736;9.330;2023-06-14T04:15:48;9.27;;;7.40;;
2416;SDS011;1219;48.736;9.330;2023-06-14T04:18:14;6.20;;;5.70;;
2416;SDS011;1219;48.736;9.330;2023-06-14T04:20:40;6.37;;;5.97;;
2416;SDS011;1219;48.736;9.330;2023-06-14T04:25:39;7.70;;;6.30;;
2416;SDS011;1219;48.736;9.330;2023-06-14T04:28:05;6.07;;;5.67;;
2416;SDS011;1219;48.736;9.330;2023-06-14T04:30:34;6.47;;;5.83;;
2416;SDS011;1219;48.736;9.330;2023-06-14T04:33:01;6.93;;;6.37;;
2416;SDS011;1219;48.736;9.330;2023-06-14T04:35:30;7.07;;;6.47;;
2416;SDS011;1219;48.736;9.330;2023-06-14T04:37:57;7.10;;;6.60;;
2416;SDS011;1219;48.736;9.330;2023-06-14T04:40:23;6.90;;;6.30;;
2416;SDS011;1219;48.736;9.330;2023-06-14T04:42:49;7.40;;;6.80;;
2416;SDS011;1219;48.736;9.330;2023-06-14T04:45:16;6.07;;;5.67;;
2416;SDS011;1219;48.736;9.330;2023-06-14T04:47:42;6.50;;;6.00;;
2416;SDS011;1219;48.736;9.330;2023-06-14T04:50:09;6.60;;;6.20;;
2416;SDS011;1219;48.736;9.330;2023-06-14T04:52:36;6.23;;;5.80;;
2416;SDS011;1219;48.736;9.330;2023-06-14T04:55:02;6.73;;;6.23;;
2416;SDS011;1219;48.736;9.330;2023-06-14T04:57:28;5.97;;;5.53;;
2416;SDS011;1219;48.736;9.330;2023-06-14T04:59:54;7.03;;;6.50;;
2416;SDS011;1219;48.736;9.330;2023-06-14T05:02:22;5.83;;;5.43;;
2416;SDS011;1219;48.736;9.330;2023-06-14T05:04:49;5.70;;;5.30;;
2416;SDS011;1219;48.736;9.330;2023-06-14T05:07:15;6.60;;;6.17;;
2416;SDS011;1219;48.736;9.330;2023-06-14T05:09:40;9.90;;;6.80;;
2416;SDS011;1219;48.736;9.330;2023-06-14T05:12:06;5.33;;;4.93;;
2416;SDS011;1219;48.736;9.330;2023-06-14T05:14:33;7.00;;;6.53;;
2416;SDS011;1219;48.736;9.330;2023-06-14T05:16:59;7.67;;;7.13;;
2416;SDS011;1219;48.736;9.330;2023-06-14T05:19:25;7.23;;;6.60;;
2416;SDS011;1219;48.736;9.330;2023-06-14T05:21:51;8.40;;;7.60;;
2416;SDS011;1219;48.736;9.330;2023-06-14T05:24:18;12.20;;;9.10;;
2416;SDS011;1219;48.736;9.330;2023-06-14T05:26:44;9.60;;;8.70;;
2416;SDS011;1219;48.736;9.330;2023-06-14T05:29:10;9.10;;;7.77;;
2416;SDS011;1219;48.736;9.330;2023-06-14T05:31:36;9.80;;;7.50;;
2416;SDS011;1219;48.736;9.330;2023-06-14T05:34:03;9.03;;;8.13;;
2416;SDS011;1219;48.736;9.330;2023-06-14T05:36:29;9.10;;;8.40;;
2416;SDS011;1219;48.736;9.330;2023-06-14T05:38:55;8.70;;;7.90;;
2416;SDS011;1219;48.736;9.330;2023-06-14T05:41:24;8.60;;;7.70;;
2416;SDS011;1219;48.736;9.330;2023-06-14T05:43:50;8.70;;;7.20;;
2416;SDS011;1219;48.736;9.330;2023-06-14T05:46:17;11.30;;;7.20;;
2416;SDS011;1219;48.736;9.330;2023-06-14T05:48:47;8.73;;;8.03;;
2416;SDS011;1219;48.736;9.330;2023-06-14T05:51:13;9.60;;;8.70;;
2416;SDS011;1219;48.736;9.330;2023-06-14T05:53:39;9.43;;;8.73;;
2416;SDS011;1219;48.736;9.330;2023-06-14T05:56:05;12.60;;;8.43;;
2416;SDS011;1219;48.736;9.330;2023-06-14T05:58:31;11.90;;;8.80;;
2416;SDS011;1219;48.736;9.330;2023-06-14T06:00:57;11.77;;;8.57;;
2416;SDS011;1219;48.736;9.330;2023-06-14T06:03:23;9.20;;;8.17;;
2416;SDS011;1219;48.736;9.330;2023-06-14T06:05:49;10.57;;;9.67;;
2416;SDS011;1219;48.736;9.330;2023-06-14T06:08:15;12.57;;;8.40;;
2416;SDS011;1219;48.736;9.330;2023-06-14T06:10:41;8.40;;;7.70;;
2416;SDS011;1219;48.736;9.330;2023-06-14T06:13:08;12.33;;;7.10;;
2416;SDS011;1219;48.736;9.330;2023-06-14T06:15:35;8.60;;;7.90;;
2416;SDS011;1219;48.736;9.330;2023-06-14T06:18:01;9.53;;;8.37;;
2416;SDS011;1219;48.736;9.330;2023-06-14T06:20:27;8.40;;;7.60;;
2416;SDS011;1219;48.736;9.330;2023-06-14T06:22:55;12.63;;;7.57;;
2416;SDS011;1219;48.736;9.330;2023-06-14T06:25:21;8.63;;;7.63;;
2416;SDS011;1219;48.736;9.330;2023-06-14T06:27:47;8.37;;;7.77;;
2416;SDS011;1219;48.736;9.330;2023-06-14T06:30:13;8.13;;;7.37;;
2416;SDS011;1219;48.736;9.330;2023-06-14T06:32:39;9.23;;;8.30;;
2416;SDS011;1219;48.736;9.330;2023-06-14T06:35:05;9.90;;;7.90;;
2416;SDS011;1219;48.736;9.330;2023-06-14T06:37:32;8.20;;;7.50;;
2416;SDS011;1219;48.736;9.330;2023-06-14T06:39:58;15.57;;;8.30;;
2416;SDS011;1219;48.736;9.330;2023-06-14T06:42:24;9.63;;;7.70;;
2416;SDS011;1219;48.736;9.330;2023-06-14T06:44:50;9.07;;;7.97;;
2416;SDS011;1219;48.736;9.330;2023-06-14T06:47:15;11.53;;;7.20;;
2416;SDS011;1219;48.736;9.330;2023-06-14T06:49:41;10.83;;;7.70;;
2416;SDS011;1219;48.736;9.330;2023-06-14T06:52:07;7.77;;;7.07;;
2416;SDS011;1219;48.736;9.330;2023-06-14T06:54:33;13.43;;;8.10;;
2416;SDS011;1219;48.736;9.330;2023-06-14T06:57:00;10.33;;;7.57;;
2416;SDS011;1219;48.736;9.330;2023-06-14T06:59:26;8.83;;;7.00;;
2416;SDS011;1219;48.736;9.330;2023-06-14T07:01:53;9.33;;;6.57;;
2416;SDS011;1219;48.736;9.330;2023-06-14T07:04:19;7.53;;;6.90;;
2416;SDS011;1219;48.736;9.330;2023-06-14T07:06:45;9.63;;;7.77;;
2416;SDS011;1219;48.736;9.330;2023-06-14T07:09:12;8.00;;;7.27;;
2416;SDS011;1219;48.736;9.330;2023-06-14T07:11:40;7.13;;;6.47;;
2416;SDS011;1219;48.736;9.330;2023-06-14T07:14:06;6.73;;;6.13;;
2416;SDS011;1219;48.736;9.330;2023-06-14T07:16:32;9.70;;;7.07;;
2416;SDS011;1219;48.736;9.330;2023-06-14T07:18:58;6.80;;;6.27;;
2416;SDS011;1219;48.736;9.330;2023-06-14T07:21:25;11.20;;;6.50;;
2416;SDS011;1219;48.736;9.330;2023-06-14T07:23:54;5.57;;;5.17;;
2416;SDS011;1219;48.736;9.330;2023-06-14T07:26:20;7.37;;;6.67;;
2416;SDS011;1219;48.736;9.330;2023-06-14T07:28:46;7.07;;;5.37;;
2416;SDS011;1219;48.736;9.330;2023-06-14T07:31:13;5.57;;;5.07;;
2416;SDS011;1219;48.736;9.330;2023-06-14T07:33:40;5.57;;;5.07;;
2416;SDS011;1219;48.736;9.330;2023-06-14T07:36:06;5.30;;;5.00;;
2416;SDS011;1219;48.736;9.330;2023-06-14T07:38:32;6.43;;;5.27;;
2416;SDS011;1219;48.736;9.330;2023-06-14T07:40:58;6.83;;;6.20;;
2416;SDS011;1219;48.736;9.330;2023-06-14T07:43:24;7.03;;;6.17;;
2416;SDS011;1219;48.736;9.330;2023-06-14T07:45:50;6.53;;;6.03;;
2416;SDS011;1219;48.736;9.330;2023-06-14T07:48:16;5.60;;;5.10;;
2416;SDS011;1219;48.736;9.330;2023-06-14T07:50:42;7.33;;;5.63;;
2416;SDS011;1219;48.736;9.330;2023-06-14T07:53:08;10.77;;;6.23;;
2416;SDS011;1219;48.736;9.330;2023-06-14T07:55:34;6.20;;;5.70;;
2416;SDS011;1219;48.736;9.330;2023-06-14T07:58:02;6.43;;;5.17;;
2416;SDS011;1219;48.736;9.330;2023-06-14T08:00:28;5.80;;;5.17;;
2416;SDS011;1219;48.736;9.330;2023-06-14T08:02:54;6.27;;;5.80;;
2416;SDS011;1219;48.736;9.330;2023-06-14T08:05:23;6.90;;;5.10;;
2416;SDS011;1219;48.736;9.330;2023-06-14T08:07:50;5.97;;;5.57;;
2416;SDS011;1219;48.736;9.330;2023-06-14T08:10:16;5.83;;;5.37;;
2416;SDS011;1219;48.736;9.330;2023-06-14T08:12:42;5.70;;;5.20;;
2416;SDS011;1219;48.736;9.330;2023-06-14T08:15:08;6.07;;;5.27;;
2416;SDS011;1219;48.736;9.330;2023-06-14T08:17:35;7.40;;;5.93;;
2416;SDS011;1219;48.736;9.330;2023-06-14T08:20:01;6.73;;;6.13;;
2416;SDS011;1219;48.736;9.330;2023-06-14T08:22:28;9.57;;;5.93;;
2416;SDS011;1219;48.736;9.330;2023-06-14T08:24:58;7.90;;;6.30;;
2416;SDS011;1219;48.736;9.330;2023-06-14T08:27:24;5.97;;;5.47;;
2416;SDS011;1219;48.736;9.330;2023-06-14T08:29:50;5.43;;;5.00;;
2416;SDS011;1219;48.736;9.330;2023-06-14T08:32:16;5.60;;;5.20;;
2416;SDS011;1219;48.736;9.330;2023-06-14T08:34:42;5.83;;;5.43;;
2416;SDS011;1219;48.736;9.330;2023-06-14T08:37:08;7.80;;;5.73;;
2416;SDS011;1219;48.736;9.330;2023-06-14T08:39:34;8.27;;;6.10;;
2416;SDS011;1219;48.736;9.330;2023-06-14T08:42:01;6.30;;;5.80;;
2416;SDS011;1219;48.736;9.330;2023-06-14T08:44:28;7.67;;;6.43;;
2416;SDS011;1219;48.736;9.330;2023-06-14T08:46:55;5.57;;;5.03;;
2416;SDS011;1219;48.736;9.330;2023-06-14T08:49:24;7.10;;;5.80;;
2416;SDS011;1219;48.736;9.330;2023-06-14T08:51:56;6.47;;;5.97;;
2416;SDS011;1219;48.736;9.330;2023-06-14T08:54:23;5.53;;;5.03;;
2416;SDS011;1219;48.736;9.330;2023-06-14T08:56:52;6.53;;;6.10;;
2416;SDS011;1219;48.736;9.330;2023-06-14T08:59:18;5.63;;;5.10;;
2416;SDS011;1219;48.736;9.330;2023-06-14T09:01:46;6.60;;;6.00;;
2416;SDS011;1219;48.736;9.330;2023-06-14T09:04:12;5.53;;;5.13;;
2416;SDS011;1219;48.736;9.330;2023-06-14T09:06:38;10.23;;;5.63;;
2416;SDS011;1219;48.736;9.330;2023-06-14T09:09:05;7.00;;;6.47;;
2416;SDS011;1219;48.736;9.330;2023-06-14T09:11:32;5.50;;;5.20;;
2416;SDS011;1219;48.736;9.330;2023-06-14T09:13:58;6.17;;;5.57;;
2416;SDS011;1219;48.736;9.330;2023-06-14T09:16:25;5.63;;;5.13;;
2416;SDS011;1219;48.736;9.330;2023-06-14T09:18:51;5.40;;;5.00;;
2416;SDS011;1219;48.736;9.330;2023-06-14T09:21:17;6.57;;;5.97;;
2416;SDS011;1219;48.736;9.330;2023-06-14T09:23:44;6.00;;;5.50;;
2416;SDS011;1219;48.736;9.330;2023-06-14T09:26:14;7.23;;;6.40;;
2416;SDS011;1219;48.736;9.330;2023-06-14T09:28:41;5.40;;;4.97;;
2416;SDS011;1219;48.736;9.330;2023-06-14T09:31:07;5.17;;;4.87;;
2416;SDS011;1219;48.736;9.330;2023-06-14T09:33:34;4.73;;;4.33;;
2416;SDS011;1219;48.736;9.330;2023-06-14T09:36:00;5.20;;;4.80;;
2416;SDS011;1219;48.736;9.330;2023-06-14T09:38:26;8.70;;;4.73;;
2416;SDS011;1219;48.736;9.330;2023-06-14T09:40:54;4.60;;;4.40;;
2416;SDS011;1219;48.736;9.330;2023-06-14T09:43:21;4.53;;;4.23;;
2416;SDS011;1219;48.736;9.330;2023-06-14T09:45:47;6.70;;;4.40;;
2416;SDS011;1219;48.736;9.330;2023-06-14T09:48:14;4.60;;;4.30;;
2416;SDS011;1219;48.736;9.330;2023-06-14T09:50:43;4.20;;;3.77;;
2416;SDS011;1219;48.736;9.330;2023-06-14T09:53:11;5.73;;;5.20;;
2416;SDS011;1219;48.736;9.330;2023-06-14T09:55:37;5.87;;;5.33;;
2416;SDS011;1219;48.736;9.330;2023-06-14T09:58:04;12.07;;;6.20;;
2416;SDS011;1219;48.736;9.330;2023-06-14T10:00:31;5.10;;;4.60;;
2416;SDS011;1219;48.736;9.330;2023-06-14T10:03:00;5.30;;;4.43;;
2416;SDS011;1219;48.736;9.330;2023-06-14T10:05:30;5.03;;;4.73;;
2416;SDS011;1219;48.736;9.330;2023-06-14T10:07:59;6.83;;;4.80;;
2416;SDS011;1219;48.736;9.330;2023-06-14T10:10:25;5.30;;;4.90;;
2416;SDS011;1219;48.736;9.330;2023-06-14T10:12:52;4.80;;;4.30;;
2416;SDS011;1219;48.736;9.330;2023-06-14T10:15:29;4.83;;;4.53;;
2416;SDS011;1219;48.736;9.330;2023-06-14T10:17:59;5.30;;;4.90;;
2416;SDS011;1219;48.736;9.330;2023-06-14T10:20:30;4.93;;;4.63;;
2416;SDS011;1219;48.736;9.330;2023-06-14T10:23:06;7.67;;;5.07;;
2416;SDS011;1219;48.736;9.330;2023-06-14T10:25:34;5.20;;;4.90;;
2416;SDS011;1219;48.736;9.330;2023-06-14T10:28:14;4.97;;;4.67;;
2416;SDS011;1219;48.736;9.330;2023-06-14T10:33:39;4.70;;;4.40;;
2416;SDS011;1219;48.736;9.330;2023-06-14T10:38:35;7.73;;;4.80;;
2416;SDS011;1219;48.736;9.330;2023-06-14T10:41:02;5.20;;;4.83;;
2416;SDS011;1219;48.736;9.330;2023-06-14T10:43:28;4.67;;;4.27;;
2416;SDS011;1219;48.736;9.330;2023-06-14T10:48:42;7.03;;;4.53;;
2416;SDS011;1219;48.736;9.330;2023-06-14T10:51:18;5.20;;;4.80;;
2416;SDS011;1219;48.736;9.330;2023-06-14T10:53:45;4.80;;;4.40;;
2416;SDS011;1219;48.736;9.330;2023-06-14T10:56:30;4.63;;;4.23;;
2416;SDS011;1219;48.736;9.330;2023-06-14T10:58:57;4.80;;;4.40;;
2416;SDS011;1219;48.736;9.330;2023-06-14T11:01:28;6.60;;;3.50;;
2416;SDS011;1219;48.736;9.330;2023-06-14T11:04:00;4.63;;;4.10;;
2416;SDS011;1219;48.736;9.330;2023-06-14T11:06:35;4.20;;;3.57;;
2416;SDS011;1219;48.736;9.330;2023-06-14T11:11:44;3.70;;;3.50;;
2416;SDS011;1219;48.736;9.330;2023-06-14T11:14:11;4.57;;;4.17;;
2416;SDS011;1219;48.736;9.330;2023-06-14T11:16:37;4.47;;;4.07;;
2416;SDS011;1219;48.736;9.330;2023-06-14T11:19:03;4.90;;;3.70;;
2416;SDS011;1219;48.736;9.330;2023-06-14T11:21:31;3.83;;;3.47;;
2416;SDS011;1219;48.736;9.330;2023-06-14T11:23:58;3.60;;;3.27;;
2416;SDS011;1219;48.736;9.330;2023-06-14T11:26:28;7.60;;;4.00;;
2416;SDS011;1219;48.736;9.330;2023-06-14T11:29:00;5.60;;;3.60;;
2416;SDS011;1219;48.736;9.330;2023-06-14T11:31:26;4.03;;;3.63;;
2416;SDS011;1219;48.736;9.330;2023-06-14T11:33:53;3.40;;;3.20;;
2416;SDS011;1219;48.736;9.330;2023-06-14T11:36:20;4.63;;;3.33;;
2416;SDS011;1219;48.736;9.330;2023-06-14T11:38:46;3.83;;;3.53;;
2416;SDS011;1219;48.736;9.330;2023-06-14T11:41:12;3.90;;;3.60;;
2416;SDS011;1219;48.736;9.330;2023-06-14T11:43:39;4.47;;;4.17;;
2416;SDS011;1219;48.736;9.330;2023-06-14T11:46:11;5.27;;;3.80;;
2416;SDS011;1219;48.736;9.330;2023-06-14T11:48:40;4.60;;;4.20;;
2416;SDS011;1219;48.736;9.330;2023-06-14T11:51:06;4.23;;;3.90;;
2416;SDS011;1219;48.736;9.330;2023-06-14T11:53:32;5.20;;;4.70;;
2416;SDS011;1219;48.736;9.330;2023-06-14T11:55:58;4.10;;;3.40;;
2416;SDS011;1219;48.736;9.330;2023-06-14T11:58:25;5.63;;;4.80;;
2416;SDS011;1219;48.736;9.330;2023-06-14T12:00:52;6.20;;;3.90;;
2416;SDS011;1219;48.736;9.330;2023-06-14T12:03:22;4.60;;;3.73;;
2416;SDS011;1219;48.736;9.330;2023-06-14T12:05:48;4.07;;;3.67;;
2416;SDS011;1219;48.736;9.330;2023-06-14T12:08:14;4.53;;;3.70;;
2416;SDS011;1219;48.736;9.330;2023-06-14T12:10:44;4.33;;;3.40;;
2416;SDS011;1219;48.736;9.330;2023-06-14T12:13:10;3.20;;;3.00;;
2416;SDS011;1219;48.736;9.330;2023-06-14T12:15:36;4.27;;;3.97;;
2416;SDS011;1219;48.736;9.330;2023-06-14T12:18:05;3.77;;;3.47;;
2416;SDS011;1219;48.736;9.330;2023-06-14T12:20:33;9.70;;;3.43;;
2416;SDS011;1219;48.736;9.330;2023-06-14T12:23:02;4.80;;;3.77;;
2416;SDS011;1219;48.736;9.330;2023-06-14T12:25:29;4.37;;;3.53;;
2416;SDS011;1219;48.736;9.330;2023-06-14T12:28:00;6.20;;;4.43;;
2416;SDS011;1219;48.736;9.330;2023-06-14T12:30:29;4.20;;;3.40;;
2416;SDS011;1219;48.736;9.330;2023-06-14T12:32:55;4.57;;;3.80;;
2416;SDS011;1219;48.736;9.330;2023-06-14T12:35:21;4.30;;;3.60;;
2416;SDS011;1219;48.736;9.330;2023-06-14T12:37:47;7.03;;;3.53;;
2416;SDS011;1219;48.736;9.330;2023-06-14T12:40:13;3.80;;;3.50;;
2416;SDS011;1219;48.736;9.330;2023-06-14T12:42:40;4.17;;;3.87;;
2416;SDS011;1219;48.736;9.330;2023-06-14T12:45:06;3.20;;;3.00;;
2416;SDS011;1219;48.736;9.330;2023-06-14T12:47:32;3.27;;;2.90;;
2416;SDS011;1219;48.736;9.330;2023-06-14T12:49:58;3.20;;;3.00;;
2416;SDS011;1219;48.736;9.330;2023-06-14T12:52:23;3.45;;;2.85;;
2416;SDS011;1219;48.736;9.330;2023-06-14T12:54:50;3.58;;;3.30;;
2416;SDS011;1219;48.736;9.330;2023-06-14T12:57:15;3.33;;;2.95;;
2416;SDS011;1219;48.736;9.330;2023-06-14T12:59:41;3.10;;;2.85;;
2416;SDS011;1219;48.736;9.330;2023-06-14T13:02:11;2.83;;;2.63;;
2416;SDS011;1219;48.736;9.330;2023-06-14T13:04:37;5.32;;;2.83;;
2416;SDS011;1219;48.736;9.330;2023-06-14T13:07:04;2.55;;;2.35;;
2416;SDS011;1219;48.736;9.330;2023-06-14T13:09:30;3.33;;;3.03;;
2416;SDS011;1219;48.736;9.330;2023-06-14T13:11:56;2.72;;;2.53;;
2416;SDS011;1219;48.736;9.330;2023-06-14T13:14:22;3.22;;;3.03;;
2416;SDS011;1219;48.736;9.330;2023-06-14T13:16:48;3.47;;;3.17;;
2416;SDS011;1219;48.736;9.330;2023-06-14T13:19:14;4.43;;;3.10;;
2416;SDS011;1219;48.736;9.330;2023-06-14T13:21:40;3.13;;;2.83;;
2416;SDS011;1219;48.736;9.330;2023-06-14T13:24:06;3.93;;;3.60;;
2416;SDS011;1219;48.736;9.330;2023-06-14T13:26:33;4.27;;;3.70;;
2416;SDS011;1219;48.736;9.330;2023-06-14T13:28:59;3.90;;;3.60;;
2416;SDS011;1219;48.736;9.330;2023-06-14T13:31:25;3.57;;;3.27;;
2416;SDS011;1219;48.736;9.330;2023-06-14T13:33:51;3.80;;;3.50;;
2416;SDS011;1219;48.736;9.330;2023-06-14T13:36:17;3.70;;;3.50;;
2416;SDS011;1219;48.736;9.330;2023-06-14T13:38:43;3.30;;;3.00;;
2416;SDS011;1219;48.736;9.330;2023-06-14T13:41:09;3.03;;;2.83;;
2416;SDS011;1219;48.736;9.330;2023-06-14T13:43:35;10.40;;;3.80;;
2416;SDS011;1219;48.736;9.330;2023-06-14T13:46:00;4.17;;;2.93;;
2416;SDS011;1219;48.736;9.330;2023-06-14T13:48:26;3.00;;;2.80;;
2416;SDS011;1219;48.736;9.330;2023-06-14T13:50:52;8.98;;;3.20;;
2416;SDS011;1219;48.736;9.330;2023-06-14T13:53:18;5.28;;;3.28;;
2416;SDS011;1219;48.736;9.330;2023-06-14T13:55:44;3.50;;;2.45;;
2416;SDS011;1219;48.736;9.330;2023-06-14T13:58:10;2.60;;;2.45;;
2416;SDS011;1219;48.736;9.330;2023-06-14T14:00:37;7.03;;;3.15;;
2416;SDS011;1219;48.736;9.330;2023-06-14T14:03:05;6.45;;;3.05;;
2416;SDS011;1219;48.736;9.330;2023-06-14T14:05:31;3.05;;;2.85;;
2416;SDS011;1219;48.736;9.330;2023-06-14T14:07:57;3.55;;;3.17;;
2416;SDS011;1219;48.736;9.330;2023-06-14T14:10:26;3.20;;;3.00;;
2416;SDS011;1219;48.736;9.330;2023-06-14T14:12:52;3.97;;;3.67;;
2416;SDS011;1219;48.736;9.330;2023-06-14T14:15:19;4.20;;;3.30;;
2416;SDS011;1219;48.736;9.330;2023-06-14T14:17:45;4.10;;;3.80;;
2416;SDS011;1219;48.736;9.330;2023-06-14T14:20:12;4.13;;;3.83;;
2416;SDS011;1219;48.736;9.330;2023-06-14T14:22:44;4.20;;;4.00;;
2416;SDS011;1219;48.736;9.330;2023-06-14T14:25:10;7.60;;;4.57;;
2416;SDS011;1219;48.736;9.330;2023-06-14T14:27:36;4.67;;;4.37;;
2416;SDS011;1219;48.736;9.330;2023-06-14T14:30:03;5.47;;;5.03;;
2416;SDS011;1219;48.736;9.330;2023-06-14T14:32:29;5.20;;;4.90;;
2416;SDS011;1219;48.736;9.330;2023-06-14T14:34:55;5.57;;;4.80;;
2416;SDS011;1219;48.736;9.330;2023-06-14T14:37:21;5.13;;;4.73;;
2416;SDS011;1219;48.736;9.330;2023-06-14T14:39:47;9.70;;;4.53;;
2416;SDS011;1219;48.736;9.330;2023-06-14T14:42:13;3.80;;;3.20;;
2416;SDS011;1219;48.736;9.330;2023-06-14T14:44:39;3.67;;;3.37;;
2416;SDS011;1219;48.736;9.330;2023-06-14T14:47:05;3.70;;;3.40;;
2416;SDS011;1219;48.736;9.330;2023-06-14T14:49:31;3.20;;;2.90;;
2416;SDS011;1219;48.736;9.330;2023-06-14T14:51:57;3.30;;;3.00;;
2416;SDS011;1219;48.736;9.330;2023-06-14T14:54:23;3.60;;;3.30;;
2416;SDS011;1219;48.736;9.330;2023-06-14T14:56:50;6.60;;;3.43;;
2416;SDS011;1219;48.736;9.330;2023-06-14T14:59:16;2.70;;;2.50;;
2416;SDS011;1219;48.736;9.330;2023-06-14T15:01:43;3.13;;;2.83;;
2416;SDS011;1219;48.736;9.330;2023-06-14T15:04:10;2.77;;;2.63;;
2416;SDS011;1219;48.736;9.330;2023-06-14T15:06:36;3.00;;;2.80;;
2416;SDS011;1219;48.736;9.330;2023-06-14T15:09:04;3.07;;;2.87;;
2416;SDS011;1219;48.736;9.330;2023-06-14T15:11:30;3.58;;;3.28;;
2416;SDS011;1219;48.736;9.330;2023-06-14T15:13:56;3.00;;;2.80;;
2416;SDS011;1219;48.736;9.330;2023-06-14T15:16:23;3.40;;;3.10;;
2416;SDS011;1219;48.736;9.330;2023-06-14T15:18:49;3.20;;;2.90;;
2416;SDS011;1219;48.736;9.330;2023-06-14T15:21:15;4.63;;;3.47;;
2416;SDS011;1219;48.736;9.330;2023-06-14T15:23:41;4.17;;;3.57;;
2416;SDS011;1219;48.736;9.330;2023-06-14T15:26:07;4.33;;;3.93;;
2416;SDS011;1219;48.736;9.330;2023-06-14T15:28:33;3.43;;;3.10;;
2416;SDS011;1219;48.736;9.330;2023-06-14T15:30:59;5.07;;;4.57;;
2416;SDS011;1219;48.736;9.330;2023-06-14T15:33:25;4.63;;;4.23;;